Swea City, Iowa
Current Conditions -  °F | °C
As of 7:55 AM on Saturday 25 Oct 2014 (Local Time) from KFRM Reporting Station
Clear Clear  
Wind Chill:   Ceiling: Unl
Heat Index:   Visibility: 10mi
Dew Point: -15°   Wind: 7mph
Humidity: 17%   Direction: 310°NW
Pressure: 30.07"   Gusts: NA
Location:  43.38°N, 94.31°W
Report Text: KFRM 251255Z AUTO 31006KT 10SM CLR 09/M15 A3007 RMK AO1
Loading
Personal Weather Stations






























Interactive Weather Map
Tropical Storm Tracking
New forecast layout! Learn more

10-Day Weather Forecast

Advertisements
Track Severe Weather on mobile